Montz, Louisiana
Current Conditions -  °F | °C
As of 3:15 PM on Monday 22 Dec 2014 (Local Time) from K1L0 Reporting Station
Scattered Clouds Scattered Clouds  
Wind Chill: 76°   Ceiling: Unl
Heat Index: 78°   Visibility: 10mi
Dew Point: 65°   Wind: 15mph
Humidity: 67%   Direction: 240°WSW
Pressure: 29.7"   Gusts: NA
Location:  30.1499°N, 90.4621°W
Report Text: K1L0 222115Z AUTO 24013KT 10SM SCT031 SCT036 25/18 A2970 RMK AO2 T02460182
Loading
Personal Weather Stations






























Interactive Weather Map New forecast layout! Learn more

10-Day Weather Forecast

Advertisements
Track Severe Weather on mobile